Terminal Aerodrome Forecast
Issued by NWS Cleveland, OH

Home | Current Version | Previous Version | Text Only | Print | Product List | Glossary Off
Versions: 1 2 3 4 5 6 7 8 9 10 11 12 13 14

000
FTUS41 KCLE 211700
TAFTOL
TAF
KTOL 211730Z 2118/2218 28011KT P6SM SCT050 BKN110
     FM212300 26007KT P6SM FEW060
     FM220900 27008KT P6SM VCSH BKN050
     FM221300 32011KT P6SM SCT050=

USA.gov is the U.S. government's official web portal to all federal, state and local government web resources and services.